createdAt,value
2022-10-28T00:02:33.680Z,7.20
2022-10-28T00:05:36.783Z,7.70
2022-10-28T00:08:40.256Z,7.90
2022-10-28T00:11:43.359Z,6.80
2022-10-28T00:14:46.313Z,6.30
2022-10-28T00:17:49.388Z,6.80
2022-10-28T00:20:52.251Z,7.90
2022-10-28T00:23:56.388Z,6.30
2022-10-28T00:26:59.155Z,6.80
2022-10-28T00:30:02.809Z,6.20
2022-10-28T00:33:05.788Z,7.30
2022-10-28T00:36:17.667Z,6.70
2022-10-28T00:39:23.523Z,6.60
2022-10-28T00:42:26.613Z,6.80
2022-10-28T00:45:29.652Z,7.70
2022-10-28T00:48:33.026Z,5.60
2022-10-28T00:51:36.303Z,5.20
2022-10-28T00:54:40.296Z,6.50
2022-10-28T00:57:45.216Z,6.40
2022-10-28T01:00:48.137Z,6.60
2022-10-28T01:03:51.929Z,5.90
2022-10-28T01:06:56.563Z,6.40
2022-10-28T01:09:59.398Z,6.60
2022-10-28T01:13:16.242Z,5.30
2022-10-28T01:16:59.042Z,5.90
2022-10-28T01:20:17.284Z,5.80
2022-10-28T01:23:35.375Z,6.00
2022-10-28T01:27:23.001Z,5.40
2022-10-28T01:30:28.904Z,5.80
2022-10-28T01:33:52.741Z,5.70
2022-10-28T01:37:01.585Z,5.60
2022-10-28T01:40:35.736Z,5.80
2022-10-28T01:43:45.717Z,5.10
2022-10-28T01:47:00.363Z,5.90
2022-10-28T01:50:12.023Z,5.70
2022-10-28T01:53:21.086Z,4.80
2022-10-28T01:56:29.502Z,5.70
2022-10-28T01:59:34.974Z,5.90
2022-10-28T02:02:39.310Z,5.10
2022-10-28T02:05:45.681Z,4.90
2022-10-28T02:08:54.775Z,5.30
2022-10-28T02:12:33.251Z,5.10
2022-10-28T02:15:55.848Z,4.60
2022-10-28T02:19:27.531Z,4.90
2022-10-28T02:22:41.301Z,6.00
2022-10-28T02:25:47.071Z,5.10
2022-10-28T02:29:17.357Z,4.80
2022-10-28T02:32:25.854Z,4.80
2022-10-28T02:38:52.372Z,4.50
2022-10-28T02:42:04.131Z,4.80
2022-10-28T02:45:16.678Z,4.40
2022-10-28T02:48:25.942Z,4.50
2022-10-28T02:51:40.518Z,4.80
2022-10-28T02:54:53.583Z,4.40
2022-10-28T02:57:57.684Z,4.40
2022-10-28T03:01:00.570Z,4.50
2022-10-28T03:04:04.677Z,5.00
2022-10-28T03:07:07.479Z,4.30
2022-10-28T03:10:10.737Z,4.10
2022-10-28T03:13:13.782Z,5.10
2022-10-28T03:16:16.666Z,5.20
2022-10-28T03:19:19.436Z,4.60
2022-10-28T03:22:22.229Z,4.00
2022-10-28T03:25:25.060Z,4.70
2022-10-28T03:28:27.835Z,5.20
2022-10-28T03:31:33.717Z,4.10
2022-10-28T03:34:36.474Z,4.50
2022-10-28T03:37:43.965Z,4.80
2022-10-28T03:40:53.116Z,5.20
2022-10-28T03:43:55.870Z,4.70
2022-10-28T03:46:58.711Z,3.90
2022-10-28T03:50:02.237Z,4.30
2022-10-28T03:53:05.316Z,4.10
2022-10-28T03:56:13.891Z,4.10
2022-10-28T04:02:23.701Z,4.00
2022-10-28T04:05:26.711Z,5.00
2022-10-28T04:08:29.779Z,4.30
2022-10-28T04:11:32.655Z,4.10
2022-10-28T04:14:35.522Z,4.00
2022-10-28T04:17:38.595Z,4.20
2022-10-28T04:20:41.514Z,4.30
2022-10-28T04:23:44.538Z,3.40
2022-10-28T04:26:47.612Z,3.80
2022-10-28T04:29:50.419Z,4.30
2022-10-28T04:32:53.250Z,4.00
2022-10-28T04:35:56.427Z,3.50
2022-10-28T04:38:59.408Z,3.80
2022-10-28T04:42:05.349Z,4.10
2022-10-28T04:45:09.033Z,4.30
2022-10-28T04:48:11.897Z,3.40
2022-10-28T04:51:15.384Z,3.80
2022-10-28T04:54:18.179Z,4.00
2022-10-28T04:57:21.022Z,4.40
2022-10-28T05:00:25.454Z,4.00
2022-10-28T05:03:28.296Z,3.40
2022-10-28T05:06:32.496Z,3.90
2022-10-28T05:09:35.366Z,3.90
2022-10-28T05:12:41.693Z,3.70
2022-10-28T05:15:45.100Z,3.70
2022-10-28T05:18:48.171Z,4.50
2022-10-28T05:21:51.141Z,3.80
2022-10-28T05:24:54.113Z,3.60
2022-10-28T05:28:01.190Z,3.70
2022-10-28T05:31:04.255Z,4.20
2022-10-28T05:34:07.232Z,4.00
2022-10-28T05:37:10.105Z,3.30
2022-10-28T05:40:13.479Z,3.20
2022-10-28T05:43:16.453Z,3.80
2022-10-28T05:46:19.327Z,4.50
2022-10-28T05:49:22.188Z,3.10
2022-10-28T05:52:25.776Z,3.20
2022-10-28T05:55:29.808Z,3.70
2022-10-28T05:58:32.571Z,4.60
2022-10-28T06:01:35.670Z,3.70
2022-10-28T06:04:39.615Z,3.70
2022-10-28T06:07:44.298Z,4.00
2022-10-28T06:10:55.897Z,4.50
2022-10-28T06:14:02.109Z,3.90
2022-10-28T06:17:05.149Z,4.10
2022-10-28T06:20:16.409Z,4.40
2022-10-28T06:23:19.559Z,4.80
2022-10-28T06:26:22.532Z,3.50
2022-10-28T06:29:25.609Z,3.40
2022-10-28T06:32:28.485Z,4.50
2022-10-28T06:35:31.379Z,3.30
2022-10-28T06:38:34.438Z,3.40
2022-10-28T06:41:37.410Z,4.20
2022-10-28T06:44:40.281Z,3.80
2022-10-28T06:47:45.163Z,4.50
2022-10-28T06:50:48.231Z,4.70
2022-10-28T06:53:53.274Z,4.80
2022-10-28T06:56:56.128Z,4.50
2022-10-28T06:59:59.029Z,4.20
2022-10-28T07:03:02.565Z,3.80
2022-10-28T07:06:06.100Z,3.60
2022-10-28T07:09:13.576Z,4.20
2022-10-28T07:15:24.792Z,3.70
2022-10-28T07:18:29.993Z,3.80
2022-10-28T07:21:32.934Z,4.60
2022-10-28T07:24:35.710Z,4.80
2022-10-28T07:27:38.538Z,4.00
2022-10-28T07:30:41.635Z,3.50
2022-10-28T07:33:44.507Z,4.00
2022-10-28T07:36:54.544Z,4.20
2022-10-28T07:39:57.353Z,4.10
2022-10-28T07:43:00.277Z,4.00
2022-10-28T07:46:03.257Z,5.10
2022-10-28T07:49:06.524Z,4.70
2022-10-28T07:52:09.972Z,4.10
2022-10-28T07:55:55.807Z,4.30
2022-10-28T07:59:01.158Z,4.80
2022-10-28T08:02:05.153Z,4.60
2022-10-28T08:05:09.358Z,4.30
2022-10-28T08:08:15.546Z,3.70
2022-10-28T08:11:20.366Z,4.20
2022-10-28T08:14:23.529Z,4.60
2022-10-28T08:17:26.396Z,4.10
2022-10-28T08:20:29.776Z,4.40
2022-10-28T08:23:33.975Z,4.30
2022-10-28T08:26:36.846Z,5.00
2022-10-28T08:29:39.638Z,4.40
2022-10-28T08:32:42.693Z,3.90
2022-10-28T08:35:52.129Z,4.50
2022-10-28T08:38:55.204Z,3.90
2022-10-28T08:42:16.098Z,3.90
2022-10-28T08:45:25.394Z,4.20
2022-10-28T08:48:32.034Z,4.70
2022-10-28T08:51:45.717Z,4.80
2022-10-28T08:54:58.001Z,4.50
2022-10-28T08:58:06.610Z,3.70
2022-10-28T09:04:44.831Z,4.10
2022-10-28T09:07:48.392Z,3.40
2022-10-28T09:10:55.437Z,4.10
2022-10-28T09:14:06.348Z,4.60
2022-10-28T09:17:21.538Z,4.00
2022-10-28T09:20:48.560Z,3.00
2022-10-28T09:24:06.270Z,4.20
2022-10-28T09:27:18.553Z,3.90
2022-10-28T09:30:46.704Z,4.20
2022-10-28T09:34:05.122Z,3.70
2022-10-28T09:37:20.601Z,5.60
2022-10-28T09:40:30.920Z,5.70
2022-10-28T09:43:37.485Z,5.40
2022-10-28T09:46:41.164Z,5.00
2022-10-28T09:49:47.206Z,5.00
2022-10-28T09:53:11.566Z,4.90
2022-10-28T09:56:16.076Z,4.10
2022-10-28T09:59:19.352Z,3.70
2022-10-28T10:02:29.196Z,4.00
2022-10-28T10:05:38.191Z,3.90
2022-10-28T10:08:42.281Z,4.10
2022-10-28T10:11:48.446Z,3.60
2022-10-28T10:14:56.933Z,3.30
2022-10-28T10:18:04.305Z,3.70
2022-10-28T10:21:07.479Z,3.90
2022-10-28T10:24:33.376Z,3.70
2022-10-28T10:27:36.246Z,2.90
2022-10-28T10:30:46.291Z,3.30
2022-10-28T10:33:54.272Z,3.80
2022-10-28T10:36:57.298Z,3.50
2022-10-28T10:40:07.277Z,3.00
2022-10-28T10:43:40.096Z,2.90
2022-10-28T10:46:42.999Z,3.20
2022-10-28T10:49:45.871Z,3.10
2022-10-28T10:52:52.384Z,3.70
2022-10-28T10:56:03.578Z,2.30
2022-10-28T10:59:16.990Z,3.30
2022-10-28T11:02:40.475Z,3.50
2022-10-28T11:06:18.252Z,3.50
2022-10-28T11:09:32.747Z,2.90
2022-10-28T11:12:37.233Z,3.10
2022-10-28T11:15:40.375Z,3.20
2022-10-28T11:18:46.143Z,3.50
2022-10-28T11:22:12.453Z,3.50
2022-10-28T11:25:43.669Z,3.90
2022-10-28T11:29:07.726Z,2.40
2022-10-28T11:32:16.834Z,3.60
2022-10-28T11:35:36.076Z,3.70
2022-10-28T11:38:47.690Z,3.90
2022-10-28T11:42:17.123Z,3.70
2022-10-28T11:48:57.654Z,3.10
2022-10-28T11:52:19.459Z,4.20
2022-10-28T11:55:36.174Z,4.10
2022-10-28T11:58:50.166Z,3.80
2022-10-28T12:02:13.741Z,4.10
2022-10-28T12:06:06.005Z,3.90
2022-10-28T12:09:19.619Z,3.90
2022-10-28T12:12:41.397Z,3.00
2022-10-28T12:16:12.737Z,3.50
2022-10-28T12:19:27.179Z,3.60
2022-10-28T12:22:48.463Z,3.60
2022-10-28T12:25:55.862Z,3.50
2022-10-28T12:29:02.825Z,3.30
2022-10-28T12:32:08.740Z,3.30
2022-10-28T12:35:21.947Z,3.70
2022-10-28T12:38:39.073Z,3.90
2022-10-28T12:42:15.474Z,2.50
2022-10-28T12:45:21.617Z,3.10
2022-10-28T12:48:24.597Z,3.50
2022-10-28T12:51:31.758Z,3.10
2022-10-28T12:54:53.706Z,2.90
2022-10-28T12:58:22.524Z,2.70
2022-10-28T13:01:30.871Z,2.10
2022-10-28T13:04:34.198Z,2.60
2022-10-28T13:07:58.764Z,2.60
2022-10-28T13:11:20.157Z,2.90
2022-10-28T13:15:00.624Z,3.10
2022-10-28T13:18:23.714Z,2.60
2022-10-28T13:21:40.295Z,3.00
2022-10-28T13:24:56.162Z,2.80
2022-10-28T13:28:02.417Z,2.40
2022-10-28T13:31:07.380Z,2.80
2022-10-28T13:34:13.044Z,2.30
2022-10-28T13:37:23.503Z,2.60
2022-10-28T13:40:32.410Z,2.30
2022-10-28T13:43:50.736Z,3.20
2022-10-28T13:46:59.538Z,3.20
2022-10-28T13:50:12.798Z,2.90
2022-10-28T13:53:24.925Z,3.00
2022-10-28T13:56:28.214Z,2.70
2022-10-28T13:59:49.291Z,2.70
2022-10-28T14:02:57.884Z,2.80
2022-10-28T14:06:01.619Z,2.40
2022-10-28T14:09:05.267Z,2.80
2022-10-28T14:12:29.117Z,2.60
2022-10-28T14:15:38.442Z,3.60
2022-10-28T14:18:44.309Z,2.80
2022-10-28T14:22:01.712Z,2.60
2022-10-28T14:25:41.882Z,3.30
2022-10-28T14:28:44.766Z,3.00
2022-10-28T14:31:50.700Z,2.60
2022-10-28T14:34:55.824Z,3.20
2022-10-28T14:38:01.660Z,3.00
2022-10-28T14:41:35.212Z,2.50
2022-10-28T14:44:49.977Z,3.40
2022-10-28T14:47:53.346Z,3.10
2022-10-28T14:50:59.004Z,3.40
2022-10-28T14:54:07.382Z,3.70
2022-10-28T14:57:11.170Z,4.30
2022-10-28T15:00:18.885Z,4.10
2022-10-28T15:03:22.232Z,4.20
2022-10-28T15:06:39.348Z,3.70
2022-10-28T15:09:45.168Z,3.90
2022-10-28T15:12:49.261Z,3.40
2022-10-28T15:15:57.385Z,3.00
2022-10-28T15:19:07.205Z,2.70
2022-10-28T15:22:24.272Z,2.60
2022-10-28T15:25:29.811Z,2.50
2022-10-28T15:28:33.285Z,2.20
2022-10-28T15:32:15.659Z,2.90
2022-10-28T15:35:31.528Z,2.90
2022-10-28T15:38:43.014Z,3.00
2022-10-28T15:41:49.729Z,3.00
2022-10-28T15:44:57.153Z,2.30
2022-10-28T15:48:02.000Z,2.60
2022-10-28T15:51:12.381Z,2.70
2022-10-28T15:54:20.061Z,3.10
2022-10-28T15:57:26.304Z,2.80
2022-10-28T16:00:33.983Z,3.00
2022-10-28T16:03:47.200Z,3.50
2022-10-28T16:06:54.568Z,2.90
2022-10-28T16:09:58.152Z,3.20
2022-10-28T16:13:07.619Z,2.60
2022-10-28T16:16:22.919Z,3.80
2022-10-28T16:19:29.588Z,3.20
2022-10-28T16:22:36.203Z,3.50
2022-10-28T16:25:39.104Z,3.60
2022-10-28T16:28:45.298Z,3.80
2022-10-28T16:31:51.698Z,3.70
2022-10-28T16:34:58.086Z,3.80
2022-10-28T16:38:01.434Z,3.30
2022-10-28T16:41:06.132Z,3.50
2022-10-28T16:44:16.747Z,3.70
2022-10-28T16:47:22.325Z,4.30
2022-10-28T16:50:25.293Z,4.20
2022-10-28T16:53:28.817Z,4.00
2022-10-28T16:56:31.753Z,3.40
2022-10-28T16:59:34.616Z,4.20
2022-10-28T17:02:37.773Z,3.60
2022-10-28T17:05:40.869Z,5.00
2022-10-28T17:09:13.902Z,4.80
2022-10-28T17:12:07.180Z,4.90
2022-10-28T17:15:10.867Z,4.60
2022-10-28T17:18:15.342Z,4.60
2022-10-28T17:21:18.858Z,4.80
2022-10-28T17:24:22.589Z,4.90
2022-10-28T17:27:25.827Z,4.60
2022-10-28T17:30:28.965Z,4.80
2022-10-28T17:33:31.977Z,4.00
2022-10-28T17:36:35.051Z,4.70
2022-10-28T17:39:42.513Z,5.00
2022-10-28T17:42:46.624Z,5.20
2022-10-28T17:45:55.249Z,5.50
2022-10-28T17:52:01.374Z,4.60
2022-10-28T17:55:06.493Z,4.80
2022-10-28T17:58:10.283Z,5.20
2022-10-28T18:01:13.270Z,5.60
2022-10-28T18:04:16.228Z,5.70
2022-10-28T18:07:19.204Z,5.60
2022-10-28T18:10:22.073Z,5.20
2022-10-28T18:13:30.108Z,5.10
2022-10-28T18:16:34.166Z,5.40
2022-10-28T18:19:37.127Z,6.30
2022-10-28T18:22:40.305Z,5.60
2022-10-28T18:25:43.380Z,5.50
2022-10-28T18:28:46.564Z,5.60
2022-10-28T18:31:49.835Z,5.10
2022-10-28T18:34:52.638Z,5.20
2022-10-28T18:37:56.140Z,5.30
2022-10-28T18:41:00.042Z,5.10
2022-10-28T18:44:04.986Z,5.60
2022-10-28T18:47:09.099Z,5.30
2022-10-28T18:50:18.164Z,4.80
2022-10-28T18:53:37.959Z,5.20
2022-10-28T18:56:57.422Z,5.50
2022-10-28T19:00:20.715Z,4.80
2022-10-28T19:03:35.643Z,5.70
2022-10-28T19:06:52.813Z,4.70
2022-10-28T19:09:56.295Z,5.20
2022-10-28T19:13:03.691Z,5.30
2022-10-28T19:19:18.733Z,5.60
2022-10-28T19:22:25.796Z,5.40
2022-10-28T19:25:28.858Z,4.30
2022-10-28T19:28:40.061Z,4.80
2022-10-28T19:31:45.304Z,5.50
2022-10-28T19:34:48.624Z,5.90
2022-10-28T19:37:54.975Z,4.90
2022-10-28T19:41:02.841Z,5.00
2022-10-28T19:44:06.136Z,5.00
2022-10-28T19:47:09.210Z,4.90
2022-10-28T19:50:12.081Z,5.30
2022-10-28T19:53:15.059Z,4.60
2022-10-28T19:56:19.712Z,5.20
2022-10-28T19:59:22.940Z,5.50
2022-10-28T20:02:25.882Z,4.60
2022-10-28T20:05:28.989Z,4.60
2022-10-28T20:08:34.416Z,4.40
2022-10-28T20:11:38.796Z,4.40
2022-10-28T20:14:41.586Z,4.80
2022-10-28T20:17:44.561Z,4.50
2022-10-28T20:20:47.430Z,3.80
2022-10-28T20:23:55.537Z,4.70
2022-10-28T20:30:01.788Z,4.80
2022-10-28T20:33:06.789Z,4.80
2022-10-28T20:36:32.908Z,4.80
2022-10-28T20:39:35.965Z,3.90
2022-10-28T20:42:38.937Z,4.60
2022-10-28T20:45:42.010Z,5.10
2022-10-28T20:48:46.772Z,4.10
2022-10-28T20:51:50.416Z,4.80
2022-10-28T20:54:53.279Z,4.20
2022-10-28T20:57:56.664Z,3.70
2022-10-28T21:01:04.040Z,4.60
2022-10-28T21:04:09.795Z,5.00
2022-10-28T21:07:13.768Z,4.90
2022-10-28T21:10:17.559Z,4.90
2022-10-28T21:13:20.528Z,4.20
2022-10-28T21:16:24.831Z,4.40
2022-10-28T21:19:28.109Z,4.80
2022-10-28T21:22:30.988Z,4.30
2022-10-28T21:25:34.158Z,4.70
2022-10-28T21:28:37.547Z,4.40
2022-10-28T21:31:40.411Z,4.00
2022-10-28T21:34:43.282Z,3.70
2022-10-28T21:37:46.251Z,3.40
2022-10-28T21:40:49.119Z,4.00
2022-10-28T21:43:53.833Z,4.00
2022-10-28T21:46:56.701Z,3.70
2022-10-28T21:49:59.674Z,3.70
2022-10-28T21:53:04.351Z,4.10
2022-10-28T21:56:16.296Z,3.50
2022-10-28T21:59:20.375Z,4.00
2022-10-28T22:02:23.436Z,4.40
2022-10-28T22:05:28.878Z,3.30
2022-10-28T22:08:32.258Z,4.00
2022-10-28T22:11:36.396Z,3.20
2022-10-28T22:14:40.045Z,3.70
2022-10-28T22:17:43.122Z,3.40
2022-10-28T22:20:45.988Z,3.70
2022-10-28T22:23:49.882Z,3.60
2022-10-28T22:26:53.056Z,3.70
2022-10-28T22:29:56.138Z,3.60
2022-10-28T22:33:00.238Z,3.30
2022-10-28T22:36:09.251Z,3.50
2022-10-28T22:39:16.306Z,2.90
2022-10-28T22:42:19.379Z,3.40
2022-10-28T22:45:31.257Z,3.30
2022-10-28T22:48:34.535Z,3.20
2022-10-28T22:51:37.404Z,3.70
2022-10-28T22:54:40.274Z,3.50
2022-10-28T22:57:43.247Z,3.10
2022-10-28T23:00:46.220Z,3.50
2022-10-28T23:03:51.341Z,3.20
2022-10-28T23:06:54.210Z,3.30
2022-10-28T23:09:59.068Z,2.90
2022-10-28T23:13:02.821Z,3.90
2022-10-28T23:16:07.505Z,3.60
2022-10-28T23:19:12.558Z,3.60
2022-10-28T23:22:15.419Z,3.50
2022-10-28T23:25:18.391Z,3.40
2022-10-28T23:28:21.675Z,3.10
2022-10-28T23:31:25.361Z,3.20
2022-10-28T23:34:28.569Z,3.30
2022-10-28T23:37:32.206Z,2.90
2022-10-28T23:40:35.198Z,3.30
2022-10-28T23:43:38.586Z,3.20
2022-10-28T23:46:41.965Z,3.50
2022-10-28T23:49:45.143Z,2.90
2022-10-28T23:52:48.044Z,3.20
2022-10-28T23:55:53.756Z,3.50
2022-10-28T23:58:56.725Z,3.90
